Time;durP1;ratioP1;P1;durP2;ratioP2;P2;SDS_P1;SDS_P2;PMS_P1;PMS_P2;Temp;Humidity;BMP_temperature;BMP_pressure;BME280_temperature;BME280_humidity;BME280_pressure;Samples;Min_cycle;Max_cycle;Signal;HPM_P1;HPM_P2
2023/05/02 00:00:11;;;;;;;;;;;10.40;99.90;;;;;;5116300;28;20014;-74
2023/05/02 00:02:37;;;;;;;;;;;10.00;99.90;;;;;;5098057;28;19973;-75
2023/05/02 00:05:05;;;;;;;;;;;9.90;99.90;;;;;;5096539;28;20215;-73
2023/05/02 00:07:31;;;;;;;;;;;9.90;99.90;;;;;;5097957;28;19931;-74
2023/05/02 00:09:57;;;;;;;;;;;9.90;99.90;;;;;;5098082;28;19924;-73
2023/05/02 00:12:22;;;;;;;;;;;9.90;99.90;;;;;;5114961;28;20416;-73
2023/05/02 00:14:48;;;;;;;;;;;9.90;99.90;;;;;;5116074;28;20398;-74
2023/05/02 00:17:17;;;;;;;;;;;10.10;99.90;;;;;;5097803;28;20322;-74
2023/05/02 00:19:43;;;;;;;;;;;9.90;99.90;;;;;;5097255;28;19924;-73
2023/05/02 00:22:08;;;;;;;;;;;9.80;99.90;;;;;;5097034;28;19928;-74
2023/05/02 00:24:34;;;;;;;;;;;9.90;99.90;;;;;;5116187;28;20018;-74
2023/05/02 00:26:59;;;;;;;;;;;9.90;99.90;;;;;;5115027;28;19927;-74
2023/05/02 00:29:25;;;;;;;;;;;9.90;99.90;;;;;;5115162;28;19935;-74
2023/05/02 00:31:50;;;;;;;;;;;10.50;99.90;;;;;;5115646;28;19931;-73
2023/05/02 00:34:16;;;;;;;;;;;10.00;99.90;;;;;;5096465;28;19931;-74
2023/05/02 00:36:41;;;;;;;;;;;10.00;99.90;;;;;;5097586;28;19924;-73
2023/05/02 00:39:07;;;;;;;;;;;9.80;99.90;;;;;;5096967;28;19950;-74
2023/05/02 00:41:32;;;;;;;;;;;9.70;99.90;;;;;;5096333;28;20294;-74
2023/05/02 00:43:58;;;;;;;;;;;10.50;99.90;;;;;;5115338;28;20379;-74
2023/05/02 00:46:23;;;;;;;;;;;9.50;99.90;;;;;;5115088;28;20375;-74
2023/05/02 00:48:49;;;;;;;;;;;9.50;99.90;;;;;;5096963;28;20405;-74
2023/05/02 00:51:15;;;;;;;;;;;9.60;99.90;;;;;;5097156;28;19928;-73
2023/05/02 00:53:40;;;;;;;;;;;9.50;99.90;;;;;;5114850;28;19923;-73
2023/05/02 00:56:06;;;;;;;;;;;9.30;99.90;;;;;;5095570;28;19927;-74
2023/05/02 00:58:33;;;;;;;;;;;9.20;99.90;;;;;;5114464;28;19930;-74
2023/05/02 01:01:17;;;;;;;;;;;9.10;99.90;;;;;;5095855;28;19931;-74
2023/05/02 01:03:58;;;;;;;;;;;9.10;99.90;;;;;;5096687;28;19969;-74
2023/05/02 01:06:30;;;;;;;;;;;9.10;99.90;;;;;;5115384;28;19923;-74
2023/05/02 01:09:28;;;;;;;;;;;9.10;99.90;;;;;;5095664;28;19924;-74
2023/05/02 01:12:02;;;;;;;;;;;9.00;99.90;;;;;;5034412;28;19924;-73
2023/05/02 01:14:42;;;;;;;;;;;8.90;99.90;;;;;;5076643;28;19974;-73
2023/05/02 01:17:10;;;;;;;;;;;8.80;99.90;;;;;;5076204;28;19931;-73
2023/05/02 01:19:38;;;;;;;;;;;8.70;99.90;;;;;;5094601;28;19924;-74
2023/05/02 01:22:06;;;;;;;;;;;9.30;99.90;;;;;;5095191;28;20014;-73
2023/05/02 01:24:52;;;;;;;;;;;8.80;99.90;;;;;;5096319;28;19920;-73
2023/05/02 01:27:33;;;;;;;;;;;8.60;99.90;;;;;;5114047;28;19963;-73
2023/05/02 01:30:00;;;;;;;;;;;8.50;99.90;;;;;;5113014;28;20387;-73
2023/05/02 01:32:26;;;;;;;;;;;9.10;99.90;;;;;;5096268;28;19924;-74
2023/05/02 01:34:53;;;;;;;;;;;8.50;99.90;;;;;;5096084;28;19967;-73
2023/05/02 01:37:19;;;;;;;;;;;8.60;99.90;;;;;;5095845;28;19924;-73
2023/05/02 01:39:45;;;;;;;;;;;8.40;99.90;;;;;;5114220;28;19931;-73
2023/05/02 01:42:12;;;;;;;;;;;8.40;99.90;;;;;;5093967;28;20294;-73
2023/05/02 01:44:39;;;;;;;;;;;8.40;99.90;;;;;;5113673;28;19924;-73
2023/05/02 01:47:06;;;;;;;;;;;8.40;99.90;;;;;;5096074;28;19924;-73
2023/05/02 01:49:33;;;;;;;;;;;9.20;99.90;;;;;;5096201;28;19931;-73
2023/05/02 01:52:02;;;;;;;;;;;8.30;99.90;;;;;;5094323;28;19923;-73
2023/05/02 01:54:28;;;;;;;;;;;8.30;99.90;;;;;;5114024;28;19969;-73
2023/05/02 01:56:54;;;;;;;;;;;8.30;99.90;;;;;;5113098;28;19924;-73
2023/05/02 01:59:20;;;;;;;;;;;8.20;99.90;;;;;;5095593;28;19931;-74
2023/05/02 02:01:53;;;;;;;;;;;8.20;99.90;;;;;;5095970;28;19931;-74
2023/05/02 02:04:19;;;;;;;;;;;8.40;99.90;;;;;;5095273;28;19924;-74
2023/05/02 02:06:47;;;;;;;;;;;8.50;99.90;;;;;;5113894;28;20290;-74
2023/05/02 02:09:13;;;;;;;;;;;8.30;99.90;;;;;;5095093;28;19924;-75
2023/05/02 02:11:57;;;;;;;;;;;8.20;99.90;;;;;;5094994;28;20404;-75
2023/05/02 02:14:30;;;;;;;;;;;8.10;99.90;;;;;;5095475;28;19924;-74
2023/05/02 02:16:59;;;;;;;;;;;8.10;99.90;;;;;;5112970;28;19967;-74
2023/05/02 02:19:25;;;;;;;;;;;8.10;99.90;;;;;;5112660;28;20406;-74
2023/05/02 02:21:51;;;;;;;;;;;8.10;99.90;;;;;;5113515;28;19978;-75
2023/05/02 02:24:18;;;;;;;;;;;8.10;99.90;;;;;;5113835;28;19924;-75
2023/05/02 02:26:43;;;;;;;;;;;8.10;99.90;;;;;;5112557;28;19931;-75
2023/05/02 02:29:09;;;;;;;;;;;8.10;99.90;;;;;;5113276;28;19919;-75
2023/05/02 02:31:35;;;;;;;;;;;8.10;99.90;;;;;;5113700;28;19930;-75
2023/05/02 02:34:01;;;;;;;;;;;8.10;99.90;;;;;;5094283;28;19931;-74
2023/05/02 02:36:26;;;;;;;;;;;8.00;99.90;;;;;;5094226;28;20313;-74
2023/05/02 02:39:08;;;;;;;;;;;8.00;99.90;;;;;;5113222;28;19949;-74
2023/05/02 02:42:00;;;;;;;;;;;7.90;99.90;;;;;;5095499;28;20010;-74
2023/05/02 02:44:41;;;;;;;;;;;7.90;99.90;;;;;;5095228;28;19928;-74
2023/05/02 02:47:12;;;;;;;;;;;7.90;99.90;;;;;;5093724;28;19928;-74
2023/05/02 02:49:43;;;;;;;;;;;7.90;99.90;;;;;;5094820;28;19931;-74
2023/05/02 02:52:16;;;;;;;;;;;7.90;99.90;;;;;;5112955;28;19973;-74
2023/05/02 02:54:59;;;;;;;;;;;7.90;99.90;;;;;;5112663;28;19924;-75
2023/05/02 02:57:32;;;;;;;;;;;7.90;99.90;;;;;;5113571;28;19976;-75
2023/05/02 03:00:10;;;;;;;;;;;7.90;99.90;;;;;;5095179;28;20283;-74
2023/05/02 03:02:45;;;;;;;;;;;7.80;99.90;;;;;;5094873;28;20014;-75
2023/05/02 03:05:12;;;;;;;;;;;7.80;99.90;;;;;;5094729;28;20228;-74
2023/05/02 03:07:37;;;;;;;;;;;7.90;99.90;;;;;;5094847;28;19931;-74
2023/05/02 03:10:06;;;;;;;;;;;7.80;99.90;;;;;;5113028;28;19923;-75
2023/05/02 03:12:32;;;;;;;;;;;7.80;99.90;;;;;;5094651;28;20435;-75
2023/05/02 03:15:16;;;;;;;;;;;7.80;99.90;;;;;;5093779;28;19928;-75
2023/05/02 03:17:42;;;;;;;;;;;7.80;99.90;;;;;;5094932;28;19924;-74
2023/05/02 03:20:07;;;;;;;;;;;7.80;99.90;;;;;;5095523;28;20010;-75
2023/05/02 03:22:33;;;;;;;;;;;7.80;99.90;;;;;;5097543;28;20390;-74
2023/05/02 03:24:58;;;;;;;;;;;8.20;99.90;;;;;;5098375;28;19924;-74
2023/05/02 03:27:30;;;;;;;;;;;7.80;99.90;;;;;;5117071;28;20022;-74
2023/05/02 03:29:56;;;;;;;;;;;7.80;99.90;;;;;;5116000;28;19924;-75
2023/05/02 03:32:21;;;;;;;;;;;8.70;99.90;;;;;;5098369;28;19930;-75
2023/05/02 03:34:47;;;;;;;;;;;7.80;99.90;;;;;;5116834;28;19923;-75
2023/05/02 03:37:12;;;;;;;;;;;7.90;99.90;;;;;;5097638;28;19924;-74
2023/05/02 03:39:38;;;;;;;;;;;8.00;99.90;;;;;;5116249;28;20432;-74
2023/05/02 03:42:04;;;;;;;;;;;7.80;99.90;;;;;;5098306;28;19953;-75
2023/05/02 03:44:29;;;;;;;;;;;7.70;99.90;;;;;;5097998;28;20389;-74
2023/05/02 03:46:55;;;;;;;;;;;7.70;99.90;;;;;;5098055;28;19923;-74
2023/05/02 03:49:20;;;;;;;;;;;7.60;99.90;;;;;;5115450;28;19974;-75
2023/05/02 03:51:46;;;;;;;;;;;7.60;99.90;;;;;;5097872;28;20018;-74
2023/05/02 03:54:12;;;;;;;;;;;8.30;99.90;;;;;;5116392;28;19986;-74
2023/05/02 03:56:38;;;;;;;;;;;7.70;99.90;;;;;;5097610;28;19924;-74
2023/05/02 03:59:04;;;;;;;;;;;7.70;99.90;;;;;;5115450;28;20011;-74
2023/05/02 04:01:30;;;;;;;;;;;7.60;99.90;;;;;;5116302;28;20387;-74
2023/05/02 04:03:59;;;;;;;;;;;7.50;99.90;;;;;;5096690;28;19969;-74
2023/05/02 04:06:24;;;;;;;;;;;8.80;99.90;;;;;;5115862;28;19924;-74
2023/05/02 04:08:50;;;;;;;;;;;7.40;99.90;;;;;;5098170;28;19924;-74
2023/05/02 04:11:16;;;;;;;;;;;7.40;99.90;;;;;;5096731;28;19924;-74
2023/05/02 04:13:41;;;;;;;;;;;7.30;99.90;;;;;;5115257;28;19923;-74
2023/05/02 04:16:07;;;;;;;;;;;7.30;99.90;;;;;;5114855;28;19972;-71
2023/05/02 04:18:33;;;;;;;;;;;7.30;99.90;;;;;;5114695;28;19924;-73
2023/05/02 04:20:59;;;;;;;;;;;7.30;99.90;;;;;;5097637;28;20302;-73
2023/05/02 04:23:24;;;;;;;;;;;7.20;99.90;;;;;;5097499;28;19969;-73
2023/05/02 04:25:51;;;;;;;;;;;7.90;99.90;;;;;;5115067;28;19924;-74
2023/05/02 04:28:20;;;;;;;;;;;7.30;99.90;;;;;;5097846;28;19931;-73
2023/05/02 04:30:47;;;;;;;;;;;7.30;99.90;;;;;;5097085;28;20296;-74
2023/05/02 04:33:13;;;;;;;;;;;7.40;99.90;;;;;;5096522;28;19931;-74
2023/05/02 04:35:39;;;;;;;;;;;7.40;99.90;;;;;;5115534;28;19924;-74
2023/05/02 04:38:04;;;;;;;;;;;7.30;99.90;;;;;;5097103;28;19961;-74
2023/05/02 04:40:30;;;;;;;;;;;7.40;99.90;;;;;;5115158;28;19928;-74
2023/05/02 04:42:55;;;;;;;;;;;8.50;99.90;;;;;;5096895;28;20313;-74
2023/05/02 04:45:21;;;;;;;;;;;7.30;99.90;;;;;;5096770;28;19923;-74
2023/05/02 04:47:46;;;;;;;;;;;7.30;99.90;;;;;;5096588;28;19924;-75
2023/05/02 04:50:12;;;;;;;;;;;7.40;99.90;;;;;;5097025;28;20022;-74
2023/05/02 04:52:37;;;;;;;;;;;7.40;99.90;;;;;;5095557;28;19931;-74
2023/05/02 04:55:03;;;;;;;;;;;8.60;99.90;;;;;;5114453;28;19928;-74
2023/05/02 04:57:29;;;;;;;;;;;7.40;99.90;;;;;;5096640;28;20016;-74
2023/05/02 04:59:54;;;;;;;;;;;7.40;99.90;;;;;;5096041;28;19923;-75
2023/05/02 05:02:20;;;;;;;;;;;7.50;99.90;;;;;;5114966;28;20353;-75
2023/05/02 05:04:45;;;;;;;;;;;7.50;99.90;;;;;;5096909;28;20082;-74
2023/05/02 05:07:11;;;;;;;;;;;7.50;99.90;;;;;;5095707;28;20291;-75
2023/05/02 05:09:36;;;;;;;;;;;7.50;99.90;;;;;;5115194;28;19977;-75
2023/05/02 05:12:02;;;;;;;;;;;7.60;99.90;;;;;;5095669;28;20030;-74
2023/05/02 05:14:27;;;;;;;;;;;7.60;99.90;;;;;;5114389;28;19923;-75
2023/05/02 05:16:53;;;;;;;;;;;7.70;99.90;;;;;;5096567;28;19972;-74
2023/05/02 05:19:19;;;;;;;;;;;8.70;99.90;;;;;;5096593;28;20026;-75
2023/05/02 05:21:47;;;;;;;;;;;7.70;99.90;;;;;;5113568;28;19927;-74
2023/05/02 05:24:12;;;;;;;;;;;8.30;99.90;;;;;;5096690;28;19977;-75
2023/05/02 05:26:38;;;;;;;;;;;7.70;99.90;;;;;;5096085;28;19923;-75
2023/05/02 05:29:03;;;;;;;;;;;7.70;99.90;;;;;;5095727;28;19962;-75
2023/05/02 05:31:29;;;;;;;;;;;7.70;99.90;;;;;;5095781;28;19928;-74
2023/05/02 05:33:54;;;;;;;;;;;9.00;99.90;;;;;;5114092;28;19931;-74
2023/05/02 05:36:20;;;;;;;;;;;8.80;99.90;;;;;;5094821;28;19939;-74
2023/05/02 05:38:46;;;;;;;;;;;7.80;99.90;;;;;;5114689;28;20033;-75
2023/05/02 05:41:11;;;;;;;;;;;7.80;99.90;;;;;;5096304;28;20010;-75
2023/05/02 05:43:49;;;;;;;;;;;7.80;99.90;;;;;;5094210;28;20382;-74
2023/05/02 05:46:14;;;;;;;;;;;7.80;99.90;;;;;;5095962;28;20351;-75
2023/05/02 05:48:43;;;;;;;;;;;8.40;99.90;;;;;;5114050;28;19934;-75
2023/05/02 05:51:11;;;;;;;;;;;9.10;99.90;;;;;;5095231;28;19927;-75
2023/05/02 05:53:37;;;;;;;;;;;8.20;99.90;;;;;;5113723;28;19924;-75
2023/05/02 05:56:12;;;;;;;;;;;7.80;99.90;;;;;;5095196;28;20385;-75
2023/05/02 05:58:38;;;;;;;;;;;7.80;99.90;;;;;;5113893;28;19923;-75
2023/05/02 06:01:04;;;;;;;;;;;7.90;99.90;;;;;;5113992;28;19930;-75
2023/05/02 06:03:30;;;;;;;;;;;8.70;99.90;;;;;;5094590;28;19927;-75
2023/05/02 06:05:56;;;;;;;;;;;8.30;99.90;;;;;;5113777;28;19975;-75
2023/05/02 06:08:25;;;;;;;;;;;7.90;99.90;;;;;;5095947;28;19931;-76
2023/05/02 06:10:51;;;;;;;;;;;8.00;99.90;;;;;;5094563;28;19965;-75
2023/05/02 06:13:16;;;;;;;;;;;8.10;99.90;;;;;;5112409;28;19927;-75
2023/05/02 06:15:42;;;;;;;;;;;8.70;99.90;;;;;;5094642;28;19977;-75
2023/05/02 06:18:07;;;;;;;;;;;8.20;99.90;;;;;;5094106;28;20391;-75
2023/05/02 06:20:34;;;;;;;;;;;8.30;99.90;;;;;;5113651;28;20283;-74
2023/05/02 06:23:00;;;;;;;;;;;8.30;99.90;;;;;;5094223;28;19935;-74
2023/05/02 06:25:25;;;;;;;;;;;8.40;99.90;;;;;;5112645;28;20286;-74
2023/05/02 06:27:51;;;;;;;;;;;8.40;99.90;;;;;;5112605;28;19924;-75
2023/05/02 06:30:16;;;;;;;;;;;8.50;99.90;;;;;;5113587;28;20057;-75
2023/05/02 06:32:42;;;;;;;;;;;8.60;99.90;;;;;;5112697;28;20026;-76
2023/05/02 06:35:09;;;;;;;;;;;8.60;99.90;;;;;;5113538;28;19928;-75
2023/05/02 06:37:34;;;;;;;;;;;8.50;99.90;;;;;;5112795;28;20438;-74
2023/05/02 06:40:00;;;;;;;;;;;8.50;99.90;;;;;;5112125;28;20027;-77
2023/05/02 06:42:26;;;;;;;;;;;8.50;99.90;;;;;;5095488;28;19965;-71
2023/05/02 06:44:51;;;;;;;;;;;8.50;99.90;;;;;;5112285;28;19973;-75
2023/05/02 06:47:17;;;;;;;;;;;8.60;99.90;;;;;;5112434;28;20069;-74
2023/05/02 06:49:42;;;;;;;;;;;8.60;99.90;;;;;;5094633;28;20401;-72
2023/05/02 06:52:08;;;;;;;;;;;8.80;99.90;;;;;;5112236;28;19923;-72
2023/05/02 06:54:33;;;;;;;;;;;8.90;99.90;;;;;;5094831;28;19930;-73
2023/05/02 06:56:59;;;;;;;;;;;8.90;99.90;;;;;;5098540;28;19974;-73
2023/05/02 06:59:25;;;;;;;;;;;9.30;99.90;;;;;;5116408;28;20008;-73
2023/05/02 07:01:50;;;;;;;;;;;8.90;99.90;;;;;;5117520;28;19986;-73
2023/05/02 07:04:16;;;;;;;;;;;8.90;99.90;;;;;;5099217;28;20030;-73
2023/05/02 07:06:41;;;;;;;;;;;8.90;99.90;;;;;;5116290;28;20290;-73
2023/05/02 07:09:07;;;;;;;;;;;8.90;99.90;;;;;;5116808;28;19931;-74
2023/05/02 07:11:32;;;;;;;;;;;8.90;99.90;;;;;;5098127;28;19924;-72
2023/05/02 07:13:58;;;;;;;;;;;9.00;99.90;;;;;;5097853;28;19999;-79
2023/05/02 07:16:24;;;;;;;;;;;9.00;99.90;;;;;;5116796;28;20409;-79
2023/05/02 07:18:49;;;;;;;;;;;9.10;99.90;;;;;;5099178;28;19928;-79
2023/05/02 07:21:17;;;;;;;;;;;10.20;99.90;;;;;;5115736;28;20022;-75
2023/05/02 07:23:42;;;;;;;;;;;9.30;99.90;;;;;;5098754;28;20052;-74
2023/05/02 07:26:08;;;;;;;;;;;9.60;99.90;;;;;;5098342;28;20371;-74
2023/05/02 07:28:33;;;;;;;;;;;9.80;99.90;;;;;;5097896;28;19923;-73
2023/05/02 07:30:59;;;;;;;;;;;9.90;99.90;;;;;;5116430;28;19934;-77
2023/05/02 07:33:24;;;;;;;;;;;9.90;99.90;;;;;;5099239;28;19971;-73
2023/05/02 07:35:50;;;;;;;;;;;9.80;99.90;;;;;;5097971;28;19928;-73
2023/05/02 07:38:16;;;;;;;;;;;9.80;99.90;;;;;;5116550;28;19923;-74
2023/05/02 07:40:42;;;;;;;;;;;9.80;99.90;;;;;;5098150;28;20271;-75
2023/05/02 07:43:08;;;;;;;;;;;9.90;99.90;;;;;;5115446;28;20007;-78
2023/05/02 07:45:38;;;;;;;;;;;10.40;99.90;;;;;;5080961;28;19923;-79
2023/05/02 07:48:06;;;;;;;;;;;9.80;99.90;;;;;;5105230;28;19976;-76
2023/05/02 07:50:32;;;;;;;;;;;9.80;99.90;;;;;;5109615;28;19928;-72
2023/05/02 07:52:58;;;;;;;;;;;9.80;99.40;;;;;;5101139;28;19924;-78
2023/05/02 07:55:25;;;;;;;;;;;10.20;99.90;;;;;;5093592;28;19947;-80
2023/05/02 07:57:51;;;;;;;;;;;9.90;99.30;;;;;;5074719;28;19924;-76
2023/05/02 08:00:17;;;;;;;;;;;9.90;99.70;;;;;;5094565;28;19931;-75
2023/05/02 08:02:43;;;;;;;;;;;9.90;99.40;;;;;;5095088;28;19931;-76
2023/05/02 08:05:08;;;;;;;;;;;10.00;99.20;;;;;;5094192;28;20276;-80
2023/05/02 08:07:34;;;;;;;;;;;9.90;99.70;;;;;;5093930;28;20284;-80
2023/05/02 08:10:00;;;;;;;;;;;10.50;99.90;;;;;;5093003;28;20005;-78
2023/05/02 08:12:25;;;;;;;;;;;9.90;99.40;;;;;;5094448;28;20384;-82
2023/05/02 08:14:51;;;;;;;;;;;9.90;99.70;;;;;;5094111;28;19931;-78
2023/05/02 08:17:16;;;;;;;;;;;10.10;99.70;;;;;;5094816;28;20019;-76
2023/05/02 08:19:42;;;;;;;;;;;10.50;99.90;;;;;;5095374;28;20014;-80
2023/05/02 08:22:07;;;;;;;;;;;10.00;99.90;;;;;;5090297;28;19936;-78
2023/05/02 08:24:33;;;;;;;;;;;10.00;99.50;;;;;;5090397;28;20291;-79
2023/05/02 08:26:58;;;;;;;;;;;10.10;99.50;;;;;;5093945;28;19920;-75
2023/05/02 08:29:24;;;;;;;;;;;10.80;99.20;;;;;;5094040;28;19924;-77
2023/05/02 08:31:52;;;;;;;;;;;9.90;99.60;;;;;;5093957;28;19927;-77
2023/05/02 08:34:21;;;;;;;;;;;10.00;99.90;;;;;;5093238;28;20286;-78
2023/05/02 08:36:47;;;;;;;;;;;10.00;99.90;;;;;;5094982;28;20330;-76
2023/05/02 08:39:13;;;;;;;;;;;9.90;99.90;;;;;;5091585;28;19968;-77
2023/05/02 08:41:43;;;;;;;;;;;10.00;99.90;;;;;;5093286;28;20338;-76
2023/05/02 08:44:12;;;;;;;;;;;10.00;99.90;;;;;;5095028;28;20217;-77
2023/05/02 08:46:40;;;;;;;;;;;10.00;99.80;;;;;;5093843;28;20401;-77
2023/05/02 08:49:07;;;;;;;;;;;10.00;99.30;;;;;;5095176;28;19972;-76
2023/05/02 08:51:33;;;;;;;;;;;10.20;99.90;;;;;;5093645;28;19947;-75
2023/05/02 08:54:00;;;;;;;;;;;10.30;99.90;;;;;;5092381;28;19924;-74
2023/05/02 08:56:26;;;;;;;;;;;10.60;99.30;;;;;;5093562;28;19924;-75
2023/05/02 08:58:51;;;;;;;;;;;10.60;97.70;;;;;;5091011;28;19924;-76
2023/05/02 09:01:20;;;;;;;;;;;11.80;98.20;;;;;;5094064;28;19924;-76
2023/05/02 09:03:46;;;;;;;;;;;10.90;97.30;;;;;;5093970;28;20022;-73
2023/05/02 09:06:13;;;;;;;;;;;11.20;97.80;;;;;;5093632;28;19923;-75
2023/05/02 09:08:39;;;;;;;;;;;11.50;97.10;;;;;;5093268;28;19931;-76
2023/05/02 09:11:06;;;;;;;;;;;11.60;96.30;;;;;;5091889;28;19932;-76
2023/05/02 09:13:45;;;;;;;;;;;11.70;96.50;;;;;;5089392;28;19932;-75
2023/05/02 09:16:21;;;;;;;;;;;11.70;96.20;;;;;;5089791;28;19928;-75
2023/05/02 09:18:48;;;;;;;;;;;12.00;96.30;;;;;;5087128;28;20383;-75
2023/05/02 09:21:17;;;;;;;;;;;12.20;95.00;;;;;;5088136;28;19931;-75
2023/05/02 09:23:47;;;;;;;;;;;13.00;94.70;;;;;;5089040;28;20025;-74
2023/05/02 09:26:22;;;;;;;;;;;13.80;94.00;;;;;;5094162;28;19931;-74
2023/05/02 09:28:50;;;;;;;;;;;14.30;93.20;;;;;;5093526;28;19924;-75
2023/05/02 09:31:22;;;;;;;;;;;14.80;93.00;;;;;;5092565;28;20010;-75
2023/05/02 09:33:48;;;;;;;;;;;15.30;91.80;;;;;;5093976;28;19932;-74
2023/05/02 09:36:18;;;;;;;;;;;15.70;90.70;;;;;;5092952;28;19944;-74
2023/05/02 09:38:49;;;;;;;;;;;15.80;87.30;;;;;;5093214;28;19970;-74
2023/05/02 09:41:16;;;;;;;;;;;15.80;88.50;;;;;;5092871;28;20039;-74
2023/05/02 09:43:42;;;;;;;;;;;16.20;88.60;;;;;;5093879;28;20024;-74
2023/05/02 09:46:08;;;;;;;;;;;16.90;86.30;;;;;;5092615;28;19955;-74
2023/05/02 09:48:53;;;;;;;;;;;17.90;87.20;;;;;;5093161;28;19959;-74
2023/05/02 09:51:19;;;;;;;;;;;18.30;78.90;;;;;;5092095;28;19954;-74
2023/05/02 09:53:45;;;;;;;;;;;19.30;79.70;;;;;;5094320;28;19924;-74
2023/05/02 09:56:10;;;;;;;;;;;19.40;80.20;;;;;;5091235;28;19989;-74
2023/05/02 09:58:36;;;;;;;;;;;18.70;78.70;;;;;;5103559;28;19969;-74
2023/05/02 10:01:02;;;;;;;;;;;17.70;80.90;;;;;;5095486;28;19924;-74
2023/05/02 10:03:28;;;;;;;;;;;18.00;82.40;;;;;;5113384;28;20019;-74
2023/05/02 10:05:54;;;;;;;;;;;17.80;80.30;;;;;;5113097;28;19971;-74
2023/05/02 10:08:20;;;;;;;;;;;17.30;79.60;;;;;;5095931;28;19924;-74
2023/05/02 10:10:49;;;;;;;;;;;16.70;83.80;;;;;;5112891;28;20363;-74
2023/05/02 10:13:16;;;;;;;;;;;16.20;84.30;;;;;;5112786;28;19924;-74
2023/05/02 10:15:42;;;;;;;;;;;16.00;84.00;;;;;;5111919;28;20024;-74
2023/05/02 10:18:13;;;;;;;;;;;15.70;83.90;;;;;;5113004;28;19973;-74
2023/05/02 10:20:42;;;;;;;;;;;15.20;85.10;;;;;;5113968;28;19931;-74
2023/05/02 10:23:08;;;;;;;;;;;14.80;87.60;;;;;;5095108;28;19924;-74
2023/05/02 10:25:36;;;;;;;;;;;14.30;91.10;;;;;;5095647;28;19924;-74
2023/05/02 10:28:02;;;;;;;;;;;13.90;91.60;;;;;;5112296;28;19930;-74
2023/05/02 10:30:28;;;;;;;;;;;13.50;92.40;;;;;;5112969;28;19928;-74
2023/05/02 10:32:58;;;;;;;;;;;13.80;91.60;;;;;;5113475;28;20019;-74
2023/05/02 10:35:25;;;;;;;;;;;14.20;91.80;;;;;;5094845;28;20019;-74
2023/05/02 10:37:50;;;;;;;;;;;14.20;91.90;;;;;;5093153;28;19928;-74
2023/05/02 10:40:17;;;;;;;;;;;14.40;91.90;;;;;;5095717;28;19947;-76
2023/05/02 10:42:44;;;;;;;;;;;15.20;91.70;;;;;;5094853;28;20387;-78
2023/05/02 10:45:11;;;;;;;;;;;15.70;90.80;;;;;;5095004;28;20279;-74
2023/05/02 10:47:37;;;;;;;;;;;15.50;90.40;;;;;;5113270;28;19927;-76
2023/05/02 10:50:07;;;;;;;;;;;15.40;90.00;;;;;;5112880;28;19966;-77
2023/05/02 10:52:39;;;;;;;;;;;15.10;89.30;;;;;;5098897;28;19928;-76
2023/05/02 10:55:14;;;;;;;;;;;15.50;90.20;;;;;;5094995;28;20319;-73
2023/05/02 10:57:58;;;;;;;;;;;16.00;90.50;;;;;;5113211;28;20306;-75
2023/05/02 11:00:25;;;;;;;;;;;17.10;90.00;;;;;;5112828;28;19931;-73
2023/05/02 11:02:51;;;;;;;;;;;16.70;85.70;;;;;;5076647;28;19928;-73
2023/05/02 11:05:17;;;;;;;;;;;17.10;86.20;;;;;;5095339;28;19930;-73
2023/05/02 11:07:42;;;;;;;;;;;17.30;84.40;;;;;;5093984;28;19924;-72
2023/05/02 11:10:14;;;;;;;;;;;17.10;87.30;;;;;;5093940;28;19978;-72
2023/05/02 11:13:00;;;;;;;;;;;17.30;88.50;;;;;;5101808;28;20011;-71
2023/05/02 11:15:32;;;;;;;;;;;17.00;87.80;;;;;;5104053;28;19928;-71
2023/05/02 11:18:06;;;;;;;;;;;16.10;88.80;;;;;;5107019;28;20417;-71
2023/05/02 11:20:44;;;;;;;;;;;15.40;89.40;;;;;;5103903;28;19924;-71
2023/05/02 11:23:17;;;;;;;;;;;15.00;90.90;;;;;;5081654;28;19924;-72
2023/05/02 11:25:45;;;;;;;;;;;14.30;91.70;;;;;;5105766;28;20446;-72
2023/05/02 11:28:30;;;;;;;;;;;14.50;91.70;;;;;;5092545;28;20022;-72
2023/05/02 11:30:55;;;;;;;;;;;14.70;92.70;;;;;;5081806;28;20010;-74
2023/05/02 11:33:21;;;;;;;;;;;15.40;92.80;;;;;;5093097;28;20066;-71
2023/05/02 11:35:47;;;;;;;;;;;16.30;90.80;;;;;;5092567;28;19932;-70
2023/05/02 11:38:14;;;;;;;;;;;16.80;89.60;;;;;;5111115;28;19969;-70
2023/05/02 11:40:40;;;;;;;;;;;17.50;89.60;;;;;;5111270;28;20455;-71
2023/05/02 11:43:12;;;;;;;;;;;17.00;87.00;;;;;;5116451;28;19975;-71
2023/05/02 11:45:38;;;;;;;;;;;16.40;86.20;;;;;;5096974;28;19931;-70
2023/05/02 11:48:05;;;;;;;;;;;15.80;87.80;;;;;;5094045;28;19924;-70
2023/05/02 11:50:31;;;;;;;;;;;16.60;89.70;;;;;;5090738;28;19928;-70
2023/05/02 11:52:57;;;;;;;;;;;16.60;86.60;;;;;;5096755;28;19924;-71
2023/05/02 11:55:23;;;;;;;;;;;16.90;89.90;;;;;;5096524;28;19924;-71
2023/05/02 11:57:48;;;;;;;;;;;16.60;89.50;;;;;;5114853;28;19932;-71
2023/05/02 12:00:14;;;;;;;;;;;15.80;89.10;;;;;;5114421;28;19971;-71
2023/05/02 12:02:44;;;;;;;;;;;15.40;90.10;;;;;;5096222;28;19923;-71
2023/05/02 12:05:11;;;;;;;;;;;15.10;91.00;;;;;;5114240;28;19984;-71
2023/05/02 12:07:40;;;;;;;;;;;14.90;92.20;;;;;;5115362;28;19949;-70
2023/05/02 12:10:06;;;;;;;;;;;14.70;91.50;;;;;;5095329;28;19946;-71
2023/05/02 12:12:31;;;;;;;;;;;14.40;91.50;;;;;;5113912;28;19924;-69
2023/05/02 12:14:57;;;;;;;;;;;14.40;91.60;;;;;;5096322;28;20387;-70
2023/05/02 12:17:28;;;;;;;;;;;14.40;92.00;;;;;;5114073;28;19924;-70
2023/05/02 12:19:54;;;;;;;;;;;14.10;92.20;;;;;;5114155;28;20378;-69
2023/05/02 12:22:26;;;;;;;;;;;14.50;92.60;;;;;;5114635;28;20286;-69
2023/05/02 12:24:55;;;;;;;;;;;15.40;92.00;;;;;;5094065;28;19923;-71
2023/05/02 12:27:20;;;;;;;;;;;15.60;89.20;;;;;;5096692;28;20504;-71
2023/05/02 12:29:46;;;;;;;;;;;16.10;90.80;;;;;;5114014;28;20014;-70
2023/05/02 12:32:13;;;;;;;;;;;16.20;89.20;;;;;;5114256;28;20272;-70
2023/05/02 12:34:38;;;;;;;;;;;16.60;88.40;;;;;;5114237;28;19992;-70
2023/05/02 12:37:05;;;;;;;;;;;16.90;87.70;;;;;;5112032;27;20431;-71
2023/05/02 12:39:37;;;;;;;;;;;16.40;84.30;;;;;;5103390;27;19951;-71
2023/05/02 12:42:10;;;;;;;;;;;16.50;87.20;;;;;;5103423;27;19931;-70
2023/05/02 12:44:37;;;;;;;;;;;16.40;85.90;;;;;;5108886;27;20282;-72
2023/05/02 12:47:03;;;;;;;;;;;16.00;85.10;;;;;;5095619;28;19945;-71
2023/05/02 12:49:29;;;;;;;;;;;16.00;85.40;;;;;;5095902;28;19998;-72
2023/05/02 12:51:55;;;;;;;;;;;15.80;84.80;;;;;;5094953;28;20272;-71
2023/05/02 12:54:20;;;;;;;;;;;15.70;85.10;;;;;;5129079;27;19935;-71
2023/05/02 12:56:47;;;;;;;;;;;15.50;88.50;;;;;;5096109;28;19920;-70
2023/05/02 12:59:31;;;;;;;;;;;15.80;84.90;;;;;;5094727;28;19931;-72
2023/05/02 13:01:57;;;;;;;;;;;16.10;88.20;;;;;;5113837;28;19924;-73
2023/05/02 13:04:41;;;;;;;;;;;15.80;84.00;;;;;;5114062;28;19977;-74
2023/05/02 13:07:06;;;;;;;;;;;15.50;88.90;;;;;;5094948;28;20393;-72
2023/05/02 13:09:35;;;;;;;;;;;15.60;87.70;;;;;;5096044;28;19924;-71
2023/05/02 13:12:02;;;;;;;;;;;15.30;87.00;;;;;;5112866;28;19930;-73
2023/05/02 13:14:28;;;;;;;;;;;15.10;86.90;;;;;;5095963;28;19928;-73
2023/05/02 13:16:54;;;;;;;;;;;15.80;91.10;;;;;;5095499;28;19931;-73
2023/05/02 13:19:20;;;;;;;;;;;15.20;87.20;;;;;;5094956;28;19931;-73
2023/05/02 13:21:45;;;;;;;;;;;15.30;86.50;;;;;;5113782;28;19935;-73
2023/05/02 13:24:16;;;;;;;;;;;15.50;90.00;;;;;;5113209;28;19924;-74
2023/05/02 13:26:41;;;;;;;;;;;15.70;91.00;;;;;;5093629;28;19931;-73
2023/05/02 13:29:10;;;;;;;;;;;15.30;90.10;;;;;;5101405;28;19924;-73
2023/05/02 13:31:36;;;;;;;;;;;15.20;88.70;;;;;;5119217;28;19931;-73
2023/05/02 13:34:02;;;;;;;;;;;15.00;90.90;;;;;;5112858;28;20275;-77
2023/05/02 13:36:28;;;;;;;;;;;15.00;91.40;;;;;;5094927;28;20015;-77
2023/05/02 13:38:56;;;;;;;;;;;14.90;90.10;;;;;;5094514;28;19927;-76
2023/05/02 13:41:25;;;;;;;;;;;14.70;90.80;;;;;;5093473;28;19931;-74
2023/05/02 13:43:50;;;;;;;;;;;14.40;90.80;;;;;;5114062;28;19928;-72
2023/05/02 13:46:16;;;;;;;;;;;13.80;91.90;;;;;;5095342;28;19932;-73
2023/05/02 13:48:42;;;;;;;;;;;13.70;92.30;;;;;;5093541;28;19924;-73
2023/05/02 13:51:08;;;;;;;;;;;13.50;92.30;;;;;;5094829;28;19928;-71
2023/05/02 13:53:33;;;;;;;;;;;14.40;93.50;;;;;;5090105;28;20046;-72
2023/05/02 13:55:59;;;;;;;;;;;13.50;95.20;;;;;;5091962;28;19970;-73
2023/05/02 13:58:24;;;;;;;;;;;13.80;94.00;;;;;;5111438;28;19999;-73
2023/05/02 14:00:50;;;;;;;;;;;13.90;92.90;;;;;;5094846;28;19981;-76
2023/05/02 14:03:16;;;;;;;;;;;14.20;93.50;;;;;;5092502;28;19931;-80
2023/05/02 14:05:42;;;;;;;;;;;14.20;93.00;;;;;;5112321;28;19930;-73
2023/05/02 14:08:11;;;;;;;;;;;14.20;92.20;;;;;;5094594;28;19927;-71
2023/05/02 14:10:37;;;;;;;;;;;14.00;91.80;;;;;;5094128;28;19967;-71
2023/05/02 14:13:03;;;;;;;;;;;14.00;92.00;;;;;;5094162;28;20058;-75
2023/05/02 14:15:28;;;;;;;;;;;14.00;93.20;;;;;;5106142;28;19953;-77
2023/05/02 14:17:57;;;;;;;;;;;13.90;92.40;;;;;;5094800;28;19934;-76
2023/05/02 14:20:22;;;;;;;;;;;13.70;92.60;;;;;;5094116;28;19924;-73
2023/05/02 14:22:48;;;;;;;;;;;13.70;92.80;;;;;;5112049;28;20061;-72
2023/05/02 14:25:14;;;;;;;;;;;13.50;93.10;;;;;;5112305;28;20505;-72